createdAt,value
2022-11-24T00:01:53.206Z,96684.22
2022-11-24T00:04:23.489Z,96683.54
2022-11-24T00:06:53.657Z,96685.06
2022-11-24T00:09:24.069Z,96687.27
2022-11-24T00:11:54.252Z,96689.83
2022-11-24T00:14:26.280Z,96694.91
2022-11-24T00:16:56.243Z,96697.48
2022-11-24T00:19:26.543Z,96696.67
2022-11-24T00:21:56.330Z,96701.27
2022-11-24T00:24:26.187Z,96698.88
2022-11-24T00:26:56.150Z,96696.85
2022-11-24T00:29:26.188Z,96700.42
2022-11-24T00:31:58.350Z,96702.45
2022-11-24T00:34:28.309Z,96702.23
2022-11-24T00:36:58.609Z,96699.14
2022-11-24T00:39:28.429Z,96701.36
2022-11-24T00:41:58.400Z,96699.17
2022-11-24T00:44:28.330Z,96701.19
2022-11-24T00:46:58.772Z,96700.52
2022-11-24T00:49:28.711Z,96697.27
2022-11-24T00:51:58.847Z,96697.94
2022-11-24T00:54:29.519Z,96697.23
2022-11-24T00:56:59.522Z,96701.80
2022-11-24T00:59:29.301Z,96699.90
2022-11-24T01:01:59.456Z,96702.11
2022-11-24T01:04:29.420Z,96704.34
2022-11-24T01:06:59.460Z,96701.35
2022-11-24T01:09:29.547Z,96700.68
2022-11-24T01:12:02.341Z,96704.77
2022-11-24T01:14:33.450Z,96704.59
2022-11-24T01:17:04.210Z,96700.67
2022-11-24T01:19:42.700Z,96701.86
2022-11-24T01:22:12.960Z,96703.38
2022-11-24T01:24:43.079Z,96705.57
2022-11-24T01:27:16.410Z,96709.00
2022-11-24T01:29:46.490Z,96707.11
2022-11-24T01:32:16.478Z,96708.84
2022-11-24T01:34:46.460Z,96710.69
2022-11-24T01:37:17.509Z,96709.84
2022-11-24T01:39:47.641Z,96715.27
2022-11-24T01:42:48.379Z,96713.73
2022-11-24T01:45:40.214Z,96719.52
2022-11-24T01:48:16.717Z,96721.23
2022-11-24T01:50:48.670Z,96722.24
2022-11-24T01:53:18.650Z,96726.65
2022-11-24T01:55:49.280Z,96729.54
2022-11-24T01:58:24.379Z,96728.85
2022-11-24T02:00:54.789Z,96730.39
2022-11-24T02:03:29.850Z,96733.11
2022-11-24T02:06:03.709Z,96736.00
2022-11-24T02:08:40.661Z,96736.34
2022-11-24T02:11:10.734Z,96739.73
2022-11-24T02:13:42.880Z,96742.14
2022-11-24T02:16:13.818Z,96739.93
2022-11-24T02:18:44.749Z,96743.98
2022-11-24T02:21:18.528Z,96743.13
2022-11-24T02:24:01.000Z,96741.92
2022-11-24T02:26:37.651Z,96742.43
2022-11-24T02:29:07.939Z,96741.77
2022-11-24T02:31:38.418Z,96744.67
2022-11-24T02:34:08.421Z,96749.93
2022-11-24T02:36:38.391Z,96747.55
2022-11-24T02:39:11.635Z,96749.23
2022-11-24T02:41:43.812Z,96748.73
2022-11-24T02:44:16.778Z,96749.05
2022-11-24T02:46:46.953Z,96749.21
2022-11-24T02:49:17.489Z,96749.05
2022-11-24T02:51:47.379Z,96750.91
2022-11-24T02:54:17.422Z,96755.34
2022-11-24T02:56:47.609Z,96752.60
2022-11-24T02:59:17.670Z,96752.77
2022-11-24T03:01:47.773Z,96751.91
2022-11-24T03:04:17.740Z,96751.40
2022-11-24T03:06:47.620Z,96750.39
2022-11-24T03:09:17.902Z,96753.45
2022-11-24T03:11:47.868Z,96754.13
2022-11-24T03:14:17.769Z,96751.07
2022-11-24T03:16:47.779Z,96750.55
2022-11-24T03:19:17.626Z,96750.38
2022-11-24T03:21:50.087Z,96750.73
2022-11-24T03:24:20.260Z,96749.71
2022-11-24T03:26:50.336Z,96751.91
2022-11-24T03:29:20.340Z,96749.02
2022-11-24T03:31:50.340Z,96749.71
2022-11-24T03:34:20.221Z,96748.35
2022-11-24T03:36:50.530Z,96750.90
2022-11-24T03:39:20.359Z,96749.71
2022-11-24T03:41:51.140Z,96749.53
2022-11-24T03:44:21.298Z,96748.35
2022-11-24T03:46:51.796Z,96745.63
2022-11-24T03:49:21.731Z,96748.52
2022-11-24T03:51:51.760Z,96748.35
2022-11-24T03:54:22.002Z,96748.86
2022-11-24T03:56:52.712Z,96750.04
2022-11-24T03:59:24.941Z,96748.86
2022-11-24T04:01:56.654Z,96755.33
2022-11-24T04:04:26.630Z,96756.84
2022-11-24T04:06:57.059Z,96759.39
2022-11-24T04:09:26.947Z,96764.31
2022-11-24T04:12:15.374Z,96766.36
2022-11-24T04:14:45.289Z,96770.09
2022-11-24T04:17:15.558Z,96768.56
2022-11-24T04:19:45.622Z,96770.60
2022-11-24T04:22:16.101Z,96770.44
2022-11-24T04:24:46.089Z,96773.50
2022-11-24T04:27:16.041Z,96772.48
2022-11-24T04:29:46.190Z,96772.14
2022-11-24T04:32:16.882Z,96771.29
2022-11-24T04:34:46.798Z,96775.56
2022-11-24T04:37:16.730Z,96775.39
2022-11-24T04:39:46.745Z,96779.79
2022-11-24T04:42:17.273Z,96780.64
2022-11-24T04:44:47.407Z,96781.66
2022-11-24T04:47:20.228Z,96785.41
2022-11-24T04:49:51.070Z,96784.55
2022-11-24T04:52:22.290Z,96786.59
2022-11-24T04:54:52.893Z,96782.67
2022-11-24T04:57:24.993Z,96789.64
2022-11-24T04:59:55.511Z,96790.15
2022-11-24T05:02:25.818Z,96789.13
2022-11-24T05:04:55.760Z,96794.56
2022-11-24T05:07:25.746Z,96792.87
2022-11-24T05:10:13.380Z,96792.36
2022-11-24T05:12:48.398Z,96792.52
2022-11-24T05:15:20.948Z,96794.05
2022-11-24T05:17:51.002Z,96793.20
2022-11-24T05:20:21.510Z,96797.45
2022-11-24T05:22:52.362Z,96798.81
2022-11-24T05:25:22.379Z,96800.52
2022-11-24T05:27:52.280Z,96802.38
2022-11-24T05:30:22.477Z,96800.00
2022-11-24T05:32:52.521Z,96801.70
2022-11-24T05:35:22.547Z,96804.92
2022-11-24T05:37:53.950Z,96806.13
2022-11-24T05:40:24.018Z,96805.64
2022-11-24T05:42:54.862Z,96811.59
2022-11-24T05:45:25.015Z,96813.13
2022-11-24T05:47:55.007Z,96811.75
2022-11-24T05:50:25.830Z,96816.86
2022-11-24T05:52:55.763Z,96819.23
2022-11-24T05:55:29.249Z,96821.95
2022-11-24T05:58:05.290Z,96822.98
2022-11-24T06:00:36.330Z,96822.13
2022-11-24T06:03:06.728Z,96827.06
2022-11-24T06:05:36.952Z,96831.99
2022-11-24T06:08:07.610Z,96833.69
2022-11-24T06:10:37.652Z,96834.20
2022-11-24T06:13:13.644Z,96833.86
2022-11-24T06:15:43.931Z,96841.84
2022-11-24T06:18:14.877Z,96843.54
2022-11-24T06:20:57.615Z,96841.84
2022-11-24T06:23:35.759Z,96841.50
2022-11-24T06:26:06.329Z,96844.57
2022-11-24T06:28:36.650Z,96846.60
2022-11-24T06:31:07.168Z,96851.03
2022-11-24T06:33:38.999Z,96850.02
2022-11-24T06:36:13.380Z,96852.39
2022-11-24T06:38:43.517Z,96857.66
2022-11-24T06:41:15.119Z,96856.80
2022-11-24T06:43:47.117Z,96859.02
2022-11-24T06:46:17.657Z,96861.58
2022-11-24T06:48:47.730Z,96859.53
2022-11-24T06:51:18.711Z,96864.11
2022-11-24T06:53:48.858Z,96867.85
2022-11-24T06:56:21.119Z,96867.69
2022-11-24T06:58:53.570Z,96870.92
2022-11-24T07:01:25.970Z,96872.80
2022-11-24T07:03:57.622Z,96872.61
2022-11-24T07:06:28.430Z,96876.02
2022-11-24T07:08:58.489Z,96876.53
2022-11-24T07:11:28.730Z,96881.30
2022-11-24T07:14:00.221Z,96875.16
2022-11-24T07:16:30.951Z,96880.45
2022-11-24T07:19:02.341Z,96884.85
2022-11-24T07:21:32.350Z,96886.90
2022-11-24T07:24:02.380Z,96888.95
2022-11-24T07:26:36.830Z,96892.50
2022-11-24T07:29:07.580Z,96896.58
2022-11-24T07:31:37.716Z,96896.40
2022-11-24T07:34:07.820Z,96897.42
2022-11-24T07:36:37.704Z,96899.45
2022-11-24T07:39:08.850Z,96899.61
2022-11-24T07:41:38.912Z,96898.77
2022-11-24T07:44:09.190Z,96896.89
2022-11-24T07:46:39.983Z,96898.59
2022-11-24T07:49:10.518Z,96898.23
2022-11-24T07:51:40.400Z,96898.75
2022-11-24T07:54:10.419Z,96900.28
2022-11-24T07:56:40.253Z,96899.26
2022-11-24T07:59:10.140Z,96900.94
2022-11-24T08:01:40.599Z,96901.09
2022-11-24T08:04:11.151Z,96903.66
2022-11-24T08:06:46.089Z,96905.68
2022-11-24T08:09:17.521Z,96906.52
2022-11-24T08:11:47.660Z,96903.63
2022-11-24T08:14:18.059Z,96904.98
2022-11-24T08:16:47.967Z,96905.14
2022-11-24T08:19:17.896Z,96909.57
2022-11-24T08:21:47.928Z,96909.05
2022-11-24T08:24:18.091Z,96910.92
2022-11-24T08:26:47.960Z,96915.70
2022-11-24T08:29:18.002Z,96917.21
2022-11-24T08:31:47.918Z,96915.50
2022-11-24T08:34:18.660Z,96913.10
2022-11-24T08:36:48.780Z,96915.64
2022-11-24T08:39:18.797Z,96920.05
2022-11-24T08:41:48.837Z,96919.00
2022-11-24T08:44:18.939Z,96922.08
2022-11-24T08:46:49.620Z,96922.74
2022-11-24T08:49:21.340Z,96926.52
2022-11-24T08:51:51.110Z,96930.38
2022-11-24T08:54:21.402Z,96925.94
2022-11-24T08:56:51.572Z,96928.49
2022-11-24T08:59:22.117Z,96932.23
2022-11-24T09:01:52.089Z,96927.15
2022-11-24T09:04:22.233Z,96931.95
2022-11-24T09:06:52.130Z,96931.42
2022-11-24T09:09:22.062Z,96935.14
2022-11-24T09:11:51.943Z,96932.07
2022-11-24T09:14:21.840Z,96930.89
2022-11-24T09:16:51.824Z,96928.51
2022-11-24T09:19:21.947Z,96932.77
2022-11-24T09:21:52.340Z,96933.62
2022-11-24T09:24:22.339Z,96931.23
2022-11-24T09:26:53.845Z,96933.46
2022-11-24T09:29:23.879Z,96933.27
2022-11-24T09:31:53.940Z,96938.89
2022-11-24T09:34:23.960Z,96941.95
2022-11-24T09:36:54.029Z,96942.63
2022-11-24T09:39:24.560Z,96939.77
2022-11-24T09:42:07.880Z,96941.98
2022-11-24T09:45:03.022Z,96943.32
2022-11-24T09:47:45.555Z,96941.80
2022-11-24T09:50:20.181Z,96941.11
2022-11-24T09:53:00.831Z,96944.34
2022-11-24T09:55:41.145Z,96941.77
2022-11-24T09:58:31.510Z,96944.82
2022-11-24T10:01:13.093Z,96944.64
2022-11-24T10:03:47.272Z,96946.67
2022-11-24T10:06:23.110Z,96950.73
2022-11-24T10:09:13.472Z,96945.98
2022-11-24T10:11:51.138Z,96950.41
2022-11-24T10:14:42.279Z,96952.96
2022-11-24T10:17:25.364Z,96951.25
2022-11-24T10:20:01.800Z,96948.54
2022-11-24T10:22:42.053Z,96945.45
2022-11-24T10:25:21.430Z,96949.86
2022-11-24T10:27:56.820Z,96950.86
2022-11-24T10:30:27.649Z,96949.86
2022-11-24T10:33:01.991Z,96954.95
2022-11-24T10:35:40.310Z,96953.75
2022-11-24T10:38:22.479Z,96953.05
2022-11-24T10:41:00.470Z,96953.75
2022-11-24T10:43:31.298Z,96954.95
2022-11-24T10:46:11.574Z,96958.02
2022-11-24T10:48:48.624Z,96956.80
2022-11-24T10:51:37.452Z,96959.52
2022-11-24T10:54:17.127Z,96961.04
2022-11-24T10:56:49.028Z,96962.95
2022-11-24T10:59:35.645Z,96959.17
2022-11-24T11:02:31.922Z,96960.20
2022-11-24T11:05:37.590Z,96962.04
2022-11-24T11:08:19.735Z,96961.19
2022-11-24T11:10:51.991Z,96956.92
2022-11-24T11:13:31.089Z,96959.14
2022-11-24T11:16:01.041Z,96952.52
2022-11-24T11:18:33.756Z,96958.16
2022-11-24T11:21:05.471Z,96963.63
2022-11-24T11:23:37.530Z,96964.30
2022-11-24T11:26:31.770Z,96965.45
2022-11-24T11:34:57.611Z,96969.23
2022-11-24T11:37:31.639Z,96969.75
2022-11-24T11:40:03.200Z,96969.75
2022-11-24T11:43:01.815Z,96972.48
2022-11-24T11:45:37.331Z,96973.65
2022-11-24T11:48:27.960Z,96973.30
2022-11-24T11:54:05.907Z,96977.25
2022-11-24T11:56:40.712Z,96974.85
2022-11-24T11:59:42.270Z,96977.91
2022-11-24T12:09:21.047Z,96980.14
2022-11-24T12:12:07.055Z,96980.49
2022-11-24T12:14:47.229Z,96980.34
2022-11-24T12:17:35.299Z,96982.06
2022-11-24T12:20:20.548Z,96981.27
2022-11-24T12:23:01.301Z,96986.23
2022-11-24T12:25:36.629Z,96988.48
2022-11-24T12:28:22.791Z,96987.99
2022-11-24T12:31:02.783Z,96989.20
2022-11-24T12:34:01.387Z,96987.00
2022-11-24T12:36:41.979Z,96988.88
2022-11-24T12:39:24.122Z,96990.09
2022-11-24T12:42:09.134Z,96989.57
2022-11-24T12:45:06.069Z,96991.62
2022-11-24T12:47:42.999Z,96995.03
2022-11-24T12:50:16.882Z,96996.90
2022-11-24T12:52:57.191Z,96997.23
2022-11-24T12:55:32.047Z,96997.41
2022-11-24T12:58:11.589Z,97002.34
2022-11-24T13:00:56.445Z,97003.19
2022-11-24T13:03:39.859Z,97012.02
2022-11-24T13:06:17.329Z,97014.23
2022-11-24T13:08:48.358Z,97012.85
2022-11-24T13:11:35.719Z,97014.36
2022-11-24T13:14:13.019Z,97019.30
2022-11-24T13:17:27.911Z,97019.77
2022-11-24T13:19:50.469Z,97022.85
2022-11-24T13:22:26.190Z,97019.09
2022-11-24T13:25:17.758Z,97020.77
2022-11-24T13:27:52.017Z,97021.63
2022-11-24T13:30:56.582Z,97025.70
2022-11-24T13:33:30.031Z,97030.45
2022-11-24T13:36:53.711Z,97038.27
2022-11-24T13:39:47.454Z,97036.55
2022-11-24T13:42:42.313Z,97038.23
2022-11-24T13:45:51.221Z,97042.29
2022-11-24T13:49:02.552Z,97047.71
2022-11-24T13:51:32.729Z,97051.63
2022-11-24T13:54:03.241Z,97047.21
2022-11-24T13:56:33.748Z,97051.81
2022-11-24T13:59:18.388Z,97055.23
2022-11-24T14:01:57.959Z,97058.28
2022-11-24T14:04:31.565Z,97063.02
2022-11-24T14:07:09.028Z,97065.38
2022-11-24T14:09:43.956Z,97066.21
2022-11-24T14:12:17.517Z,97068.89
2022-11-24T14:14:49.420Z,97073.96
2022-11-24T14:17:22.592Z,97076.52
2022-11-24T14:19:54.503Z,97079.42
2022-11-24T14:22:27.297Z,97087.08
2022-11-24T14:24:59.790Z,97091.13
2022-11-24T14:27:32.802Z,97092.11
2022-11-24T14:30:05.670Z,97094.17
2022-11-24T14:32:39.570Z,97100.13
2022-11-24T14:35:27.791Z,97103.52
2022-11-24T14:38:03.343Z,97109.96
2022-11-24T14:40:43.565Z,97115.88
2022-11-24T14:43:22.530Z,97117.05
2022-11-24T14:45:54.929Z,97119.27
2022-11-24T14:48:28.143Z,97122.02
2022-11-24T14:51:09.535Z,97124.00
2022-11-24T14:53:43.379Z,97131.96
2022-11-24T14:56:24.810Z,97134.69
2022-11-24T14:58:56.029Z,97133.31
2022-11-24T15:01:36.937Z,97131.42
2022-11-24T15:04:38.925Z,97138.02
2022-11-24T15:07:19.530Z,97139.55
2022-11-24T15:09:57.342Z,97142.40
2022-11-24T15:12:30.353Z,97149.16
2022-11-24T15:15:03.721Z,97149.70
2022-11-24T15:17:34.193Z,97150.85
2022-11-24T15:20:10.701Z,97159.16
2022-11-24T15:22:44.349Z,97162.75
2022-11-24T15:25:33.183Z,97166.01
2022-11-24T15:28:03.737Z,97170.92
2022-11-24T15:30:36.935Z,97169.06
2022-11-24T15:33:15.230Z,97172.09
2022-11-24T15:35:46.500Z,97174.10
2022-11-24T15:38:17.190Z,97180.39
2022-11-24T15:40:52.701Z,97182.11
2022-11-24T15:43:31.187Z,97184.46
2022-11-24T15:46:03.771Z,97187.55
2022-11-24T15:48:34.746Z,97188.20
2022-11-24T15:51:08.932Z,97191.05
2022-11-24T15:53:44.850Z,97191.21
2022-11-24T15:56:23.918Z,97192.15
2022-11-24T15:58:54.639Z,97195.56
2022-11-24T16:01:28.095Z,97199.27
2022-11-24T16:03:58.331Z,97200.98
2022-11-24T16:06:28.667Z,97198.96
2022-11-24T16:08:59.289Z,97201.66
2022-11-24T16:11:29.500Z,97205.17
2022-11-24T16:13:59.515Z,97206.57
2022-11-24T16:16:30.165Z,97210.45
2022-11-24T16:19:00.174Z,97214.32
2022-11-24T16:21:30.292Z,97216.21
2022-11-24T16:24:00.400Z,97214.52
2022-11-24T16:26:31.669Z,97215.91
2022-11-24T16:29:03.318Z,97217.77
2022-11-24T16:31:33.683Z,97220.32
2022-11-24T16:34:03.981Z,97219.32
2022-11-24T16:36:34.291Z,97217.98
2022-11-24T16:39:05.073Z,97222.07
2022-11-24T16:41:35.669Z,97226.35
2022-11-24T16:44:06.060Z,97228.18
2022-11-24T16:46:36.211Z,97223.79
2022-11-24T16:49:06.619Z,97229.91
2022-11-24T16:51:37.185Z,97231.11
2022-11-24T16:54:07.841Z,97231.27
2022-11-24T16:56:38.141Z,97232.48
2022-11-24T16:59:08.559Z,97235.36
2022-11-24T17:01:40.027Z,97235.54
2022-11-24T17:04:12.732Z,97236.40
2022-11-24T17:06:42.793Z,97241.16
2022-11-24T17:09:13.560Z,97247.72
2022-11-24T17:11:43.682Z,97246.73
2022-11-24T17:14:14.390Z,97249.27
2022-11-24T17:16:44.645Z,97255.20
2022-11-24T17:19:14.777Z,97253.83
2022-11-24T17:21:45.049Z,97258.74
2022-11-24T17:24:17.890Z,97257.38
2022-11-24T17:26:49.619Z,97260.73
2022-11-24T17:29:19.971Z,97262.77
2022-11-24T17:31:50.253Z,97263.11
2022-11-24T17:34:20.739Z,97264.64
2022-11-24T17:36:50.910Z,97267.86
2022-11-24T17:39:24.940Z,97272.42
2022-11-24T17:41:56.030Z,97272.08
2022-11-24T17:44:26.759Z,97273.45
2022-11-24T17:47:00.597Z,97276.85
2022-11-24T17:49:30.709Z,97277.53
2022-11-24T17:52:02.220Z,97280.77
2022-11-24T17:54:45.849Z,97284.34
2022-11-24T17:57:17.162Z,97284.36
2022-11-24T17:59:47.913Z,97288.45
2022-11-24T18:02:18.430Z,97289.14
2022-11-24T18:04:48.619Z,97290.17
2022-11-24T18:07:19.051Z,97295.77
2022-11-24T18:09:49.368Z,97297.63
2022-11-24T18:12:19.679Z,97300.33
2022-11-24T18:14:49.530Z,97304.56
2022-11-24T18:17:19.861Z,97303.02
2022-11-24T18:19:49.949Z,97307.45
2022-11-24T18:22:36.584Z,97307.59
2022-11-24T18:25:11.040Z,97313.87
2022-11-24T18:27:41.490Z,97313.52
2022-11-24T18:30:13.197Z,97316.39
2022-11-24T18:32:43.461Z,97316.23
2022-11-24T18:35:16.339Z,97319.95
2022-11-24T18:37:46.489Z,97318.95
2022-11-24T18:40:17.219Z,97323.70
2022-11-24T18:42:47.683Z,97324.75
2022-11-24T18:45:18.239Z,97321.88
2022-11-24T18:47:49.839Z,97323.23
2022-11-24T18:50:22.448Z,97322.89
2022-11-24T18:52:55.411Z,97327.46
2022-11-24T18:55:26.018Z,97328.80
2022-11-24T18:57:59.120Z,97328.80
2022-11-24T19:00:29.380Z,97329.97
2022-11-24T19:03:00.030Z,97330.81
2022-11-24T19:05:31.759Z,97333.52
2022-11-24T19:08:05.751Z,97336.73
2022-11-24T19:10:41.410Z,97341.66
2022-11-24T19:13:15.720Z,97347.42
2022-11-24T19:15:47.769Z,97348.95
2022-11-24T19:18:17.999Z,97351.67
2022-11-24T19:20:47.988Z,97355.39
2022-11-24T19:23:18.663Z,97358.46
2022-11-24T19:25:48.777Z,97358.79
2022-11-24T19:28:19.002Z,97357.94
2022-11-24T19:30:50.159Z,97362.84
2022-11-24T19:33:22.503Z,97363.87
2022-11-24T19:36:02.749Z,97366.09
2022-11-24T19:38:34.030Z,97362.67
2022-11-24T19:41:12.961Z,97366.71
2022-11-24T19:43:45.920Z,97367.25
2022-11-24T19:46:17.702Z,97371.66
2022-11-24T19:48:49.779Z,97374.86
2022-11-24T19:51:21.868Z,97374.20
2022-11-24T19:53:52.558Z,97374.38
2022-11-24T19:56:25.469Z,97374.38
2022-11-24T19:58:56.219Z,97375.40
2022-11-24T20:01:27.858Z,97380.49
2022-11-24T20:03:59.504Z,97381.20
2022-11-24T20:06:33.282Z,97380.71
2022-11-24T20:09:04.545Z,97383.43
2022-11-24T20:11:34.960Z,97383.27
2022-11-24T20:14:09.283Z,97386.84
2022-11-24T20:16:39.449Z,97387.35
2022-11-24T20:19:14.240Z,97388.20
2022-11-24T20:21:47.313Z,97391.27
2022-11-24T20:24:20.429Z,97396.69
2022-11-24T20:26:56.131Z,97400.59
2022-11-24T20:29:28.062Z,97401.59
2022-11-24T20:32:00.057Z,97408.42
2022-11-24T20:34:30.925Z,97409.96
2022-11-24T20:37:01.299Z,97412.52
2022-11-24T20:39:33.009Z,97418.11
2022-11-24T20:42:05.136Z,97421.17
2022-11-24T20:44:35.599Z,97423.88
2022-11-24T20:47:06.897Z,97426.75
2022-11-24T20:49:37.597Z,97427.91
2022-11-24T20:52:08.599Z,97429.92
2022-11-24T20:54:39.339Z,97433.98
2022-11-24T20:57:12.180Z,97429.92
2022-11-24T20:59:42.427Z,97435.71
2022-11-24T21:02:15.240Z,97438.95
2022-11-24T21:04:46.240Z,97441.67
2022-11-24T21:07:22.353Z,97442.49
2022-11-24T21:09:52.690Z,97441.64
2022-11-24T21:12:24.919Z,97442.83
2022-11-24T21:14:55.259Z,97448.27
2022-11-24T21:17:27.775Z,97446.24
2022-11-24T21:20:01.014Z,97450.97
2022-11-24T21:22:33.531Z,97447.27
2022-11-24T21:25:03.917Z,97446.08
2022-11-24T21:27:37.342Z,97446.77
2022-11-24T21:30:10.117Z,97450.32
2022-11-24T21:32:40.390Z,97451.17
2022-11-24T21:35:11.003Z,97450.69
2022-11-24T21:37:41.409Z,97455.27
2022-11-24T21:40:14.609Z,97454.96
2022-11-24T21:42:44.820Z,97456.00
2022-11-24T21:45:15.820Z,97458.21
2022-11-24T21:47:48.692Z,97462.44
2022-11-24T21:50:19.539Z,97462.13
2022-11-24T21:52:51.918Z,97462.32
2022-11-24T21:55:22.890Z,97464.04
2022-11-24T21:57:54.180Z,97465.36
2022-11-24T22:00:25.737Z,97466.84
2022-11-24T22:02:56.999Z,97471.02
2022-11-24T22:05:29.869Z,97471.36
2022-11-24T22:08:02.242Z,97472.20
2022-11-24T22:10:32.940Z,97474.09
2022-11-24T22:13:03.067Z,97477.16
2022-11-24T22:15:33.419Z,97479.71
2022-11-24T22:18:03.780Z,97483.61
2022-11-24T22:20:34.059Z,97483.42
2022-11-24T22:23:09.228Z,97486.13
2022-11-24T22:25:43.257Z,97487.98
2022-11-24T22:28:13.440Z,97490.70
2022-11-24T22:30:43.519Z,97493.11
2022-11-24T22:33:15.477Z,97492.14
2022-11-24T22:35:55.419Z,97491.20
2022-11-24T22:38:25.937Z,97492.23
2022-11-24T22:41:00.499Z,97495.83
2022-11-24T22:43:32.785Z,97496.34
2022-11-24T22:46:10.625Z,97491.92
2022-11-24T22:48:42.029Z,97487.85
2022-11-24T22:51:15.019Z,97483.27
2022-11-24T22:53:48.711Z,97484.80
2022-11-24T22:56:21.755Z,97488.53
2022-11-24T22:58:52.164Z,97488.88
2022-11-24T23:01:25.533Z,97484.95
2022-11-24T23:03:55.984Z,97484.42
2022-11-24T23:06:27.309Z,97487.15
2022-11-24T23:08:59.491Z,97487.48
2022-11-24T23:11:35.133Z,97486.29
2022-11-24T23:14:11.931Z,97487.98
2022-11-24T23:16:44.161Z,97491.93
2022-11-24T23:19:14.472Z,97489.77
2022-11-24T23:21:44.757Z,97494.89
2022-11-24T23:24:14.610Z,97500.85
2022-11-24T23:26:47.478Z,97502.60
2022-11-24T23:29:17.660Z,97504.02
2022-11-24T23:31:47.848Z,97504.73
2022-11-24T23:34:18.037Z,97506.61
2022-11-24T23:36:48.237Z,97510.38
2022-11-24T23:39:18.269Z,97513.11
2022-11-24T23:41:50.069Z,97514.85
2022-11-24T23:44:19.857Z,97516.57
2022-11-24T23:46:49.989Z,97516.60
2022-11-24T23:49:22.587Z,97520.72
2022-11-24T23:51:52.839Z,97520.10
2022-11-24T23:54:22.907Z,97525.21
2022-11-24T23:56:53.030Z,97522.35
2022-11-24T23:59:23.110Z,97523.21
